sensor_id;sensor_type;location;lat;lon;timestamp;P1;durP1;ratioP1;P2;durP2;ratioP2
20046;SDS011;45339;49.838;18.904;2022-07-05T00:28:12;9.75;;;6.20;;
20046;SDS011;45339;49.838;18.904;2022-07-05T00:58:21;6.10;;;5.50;;
20046;SDS011;45339;49.838;18.904;2022-07-05T01:28:30;7.38;;;5.57;;
20046;SDS011;45339;49.838;18.904;2022-07-05T01:58:38;13.35;;;5.63;;
20046;SDS011;45339;49.838;18.904;2022-07-05T02:28:48;13.63;;;6.40;;
20046;SDS011;45339;49.838;18.904;2022-07-05T02:58:57;13.00;;;6.43;;
20046;SDS011;45339;49.838;18.904;2022-07-05T03:29:09;7.65;;;6.28;;
20046;SDS011;45339;49.838;18.904;2022-07-05T03:59:20;10.30;;;6.70;;
20046;SDS011;45339;49.838;18.904;2022-07-05T04:29:29;11.73;;;6.18;;
20046;SDS011;45339;49.838;18.904;2022-07-05T04:59:39;5.88;;;5.28;;
20046;SDS011;45339;49.838;18.904;2022-07-05T05:29:48;11.95;;;7.45;;
20046;SDS011;45339;49.838;18.904;2022-07-05T05:59:57;11.27;;;7.40;;
20046;SDS011;45339;49.838;18.904;2022-07-05T06:30:16;12.15;;;5.72;;
20046;SDS011;45339;49.838;18.904;2022-07-05T07:00:27;9.68;;;7.28;;
20046;SDS011;45339;49.838;18.904;2022-07-05T07:30:56;10.45;;;7.93;;
20046;SDS011;45339;49.838;18.904;2022-07-05T08:01:06;15.35;;;8.90;;
20046;SDS011;45339;49.838;18.904;2022-07-05T08:31:16;9.57;;;6.97;;
20046;SDS011;45339;49.838;18.904;2022-07-05T09:01:26;8.68;;;7.70;;
20046;SDS011;45339;49.838;18.904;2022-07-05T09:31:43;13.90;;;8.50;;
20046;SDS011;45339;49.838;18.904;2022-07-05T10:01:53;10.63;;;8.50;;
20046;SDS011;45339;49.838;18.904;2022-07-05T10:32:02;10.77;;;8.73;;
20046;SDS011;45339;49.838;18.904;2022-07-05T11:02:14;11.57;;;10.07;;
20046;SDS011;45339;49.838;18.904;2022-07-05T11:32:33;9.50;;;7.75;;
20046;SDS011;45339;49.838;18.904;2022-07-05T12:02:45;8.15;;;7.35;;
20046;SDS011;45339;49.838;18.904;2022-07-05T12:32:56;8.02;;;7.03;;
20046;SDS011;45339;49.838;18.904;2022-07-05T13:03:07;9.73;;;7.68;;
20046;SDS011;45339;49.838;18.904;2022-07-05T13:33:17;6.35;;;5.75;;
20046;SDS011;45339;49.838;18.904;2022-07-05T14:03:34;3.95;;;2.63;;
20046;SDS011;45339;49.838;18.904;2022-07-05T14:33:43;7.38;;;3.78;;
20046;SDS011;45339;49.838;18.904;2022-07-05T15:03:54;4.68;;;2.72;;
20046;SDS011;45339;49.838;18.904;2022-07-05T15:34:02;3.63;;;2.80;;
20046;SDS011;45339;49.838;18.904;2022-07-05T16:04:13;5.13;;;4.53;;
20046;SDS011;45339;49.838;18.904;2022-07-05T16:34:22;3.13;;;2.88;;
20046;SDS011;45339;49.838;18.904;2022-07-05T17:04:31;3.83;;;2.78;;
20046;SDS011;45339;49.838;18.904;2022-07-05T17:34:41;6.90;;;5.18;;
20046;SDS011;45339;49.838;18.904;2022-07-05T18:04:50;5.30;;;4.90;;
20046;SDS011;45339;49.838;18.904;2022-07-05T18:35:00;7.47;;;6.85;;
20046;SDS011;45339;49.838;18.904;2022-07-05T19:05:10;11.35;;;10.25;;
20046;SDS011;45339;49.838;18.904;2022-07-05T19:35:18;11.77;;;9.88;;
20046;SDS011;45339;49.838;18.904;2022-07-05T20:05:29;13.07;;;9.55;;
20046;SDS011;45339;49.838;18.904;2022-07-05T20:35:37;11.30;;;10.20;;
20046;SDS011;45339;49.838;18.904;2022-07-05T21:05:48;16.38;;;12.50;;
20046;SDS011;45339;49.838;18.904;2022-07-05T21:35:57;18.05;;;15.13;;
20046;SDS011;45339;49.838;18.904;2022-07-05T22:37:15;19.45;;;15.65;;
20046;SDS011;45339;49.838;18.904;2022-07-05T23:07:25;30.98;;;19.27;;
20046;SDS011;45339;49.838;18.904;2022-07-05T23:37:34;24.38;;;16.02;;
